Time;durP1;ratioP1;P1;durP2;ratioP2;P2;SDS_P1;SDS_P2;PMS_P1;PMS_P2;Temp;Humidity;BMP_temperature;BMP_pressure;BME280_temperature;BME280_humidity;BME280_pressure;Samples;Min_cycle;Max_cycle;Signal;HPM_P1;HPM_P2
2021/04/05 00:02:13;;;;;;;34.58;17.32;;;;;;;2.47;59.59;99798.69;2181970;81;35480;-64
2021/04/05 00:05:25;;;;;;;37.20;16.90;;;;;;;2.45;59.56;99793.89;2182137;81;29201;-63
2021/04/05 00:08:27;;;;;;;40.63;17.92;;;;;;;2.42;59.66;99780.74;2173530;81;27668;-63
2021/04/05 00:11:30;;;;;;;38.25;17.73;;;;;;;2.36;59.73;99774.27;2154712;82;29721;-64
2021/04/05 00:14:32;;;;;;;38.17;17.42;;;;;;;2.33;59.81;99772.58;2147500;82;32588;-64
2021/04/05 00:17:41;;;;;;;41.23;17.75;;;;;;;2.30;59.76;99775.30;2147411;82;34334;-63
2021/04/05 00:21:01;;;;;;;35.13;16.35;;;;;;;2.26;59.92;99766.58;2147581;82;29168;-64
2021/04/05 00:24:05;;;;;;;38.55;17.82;;;;;;;2.24;59.97;99768.39;2147217;82;28167;-64
2021/04/05 00:27:08;;;;;;;37.40;17.05;;;;;;;2.21;60.12;99758.35;2147554;82;29768;-64
2021/04/05 00:30:19;;;;;;;31.82;16.52;;;;;;;2.18;60.23;99761.91;2147499;82;31175;-63
2021/04/05 00:33:22;;;;;;;30.08;14.90;;;;;;;2.12;60.36;99746.23;2111030;84;33108;-62
2021/04/05 00:36:25;;;;;;;31.68;15.70;;;;;;;2.09;60.46;99741.02;2111232;84;29115;-63
2021/04/05 00:39:27;;;;;;;30.37;14.35;;;;;;;2.04;60.56;99735.84;2111274;84;27682;-63
2021/04/05 00:42:29;;;;;;;28.23;14.53;;;;;;;2.02;60.62;99722.23;2111218;84;28820;-64
2021/04/05 00:45:32;;;;;;;30.97;13.93;;;;;;;2.00;60.64;99719.64;2111260;84;32121;-62
2021/04/05 00:48:36;;;;;;;30.68;15.25;;;;;;;1.99;60.74;99715.27;2111130;84;33139;-61
2021/04/05 00:51:38;;;;;;;28.85;12.98;;;;;;;1.96;60.88;99702.13;2111283;84;29158;-63
2021/04/05 00:54:41;;;;;;;35.30;15.20;;;;;;;1.93;60.92;99682.38;2111257;84;27696;-64
2021/04/05 00:57:44;;;;;;;31.77;15.05;;;;;;;1.93;61.07;99691.62;2111216;84;29248;-64
2021/04/05 01:00:51;;;;;;;24.10;13.98;;;;;;;1.92;61.18;99678.00;2091244;84;31176;-62
2021/04/05 01:03:54;;;;;;;28.35;14.73;;;;;;;1.90;61.20;99676.73;2111099;84;33110;-62
2021/04/05 01:06:57;;;;;;;31.70;14.63;;;;;;;1.90;61.25;99679.38;2111269;84;30059;-62
2021/04/05 01:10:00;;;;;;;28.47;15.80;;;;;;;1.89;61.36;99671.03;2127547;83;27685;-63
2021/04/05 01:13:02;;;;;;;33.08;15.58;;;;;;;1.88;61.38;99659.19;2134356;83;28833;-64
2021/04/05 01:16:05;;;;;;;39.38;17.80;;;;;;;1.86;61.48;99655.25;2134354;83;31166;-65
2021/04/05 01:19:10;;;;;;;31.62;15.10;;;;;;;1.85;61.55;99648.70;2134075;83;33120;-64
2021/04/05 01:22:12;;;;;;;33.10;15.28;;;;;;;1.84;61.67;99628.00;2134053;83;33118;-65
2021/04/05 01:25:17;;;;;;;34.27;16.42;;;;;;;1.83;61.74;99627.59;2109839;83;27780;-64
2021/04/05 01:28:20;;;;;;;34.53;15.28;;;;;;;1.80;61.79;99621.94;2134374;83;28641;-64
2021/04/05 01:31:23;;;;;;;31.70;15.80;;;;;;;1.77;61.82;99610.13;2133998;83;32578;-64
2021/04/05 01:34:25;;;;;;;31.85;16.55;;;;;;;1.76;61.77;99608.86;2134290;83;35567;-64
2021/04/05 01:37:28;;;;;;;32.23;15.20;;;;;;;1.75;61.82;99611.93;2134376;83;29152;-64
2021/04/05 01:40:36;;;;;;;33.30;16.30;;;;;;;1.75;61.83;99600.05;2134293;83;28013;-64
2021/04/05 01:43:39;;;;;;;32.63;15.13;;;;;;;1.76;61.86;99598.30;2134224;83;28845;-64
2021/04/05 01:46:41;;;;;;;36.42;17.07;;;;;;;1.74;62.00;99588.22;2134184;83;31192;-64
2021/04/05 01:49:43;;;;;;;29.18;15.90;;;;;;;1.71;62.02;99580.37;2134214;83;34243;-63
2021/04/05 01:52:46;;;;;;;30.55;16.07;;;;;;;1.65;62.10;99573.03;2134233;83;29593;-64
2021/04/05 01:55:48;;;;;;;33.40;15.40;;;;;;;1.62;62.25;99571.78;2134433;83;27677;-64
2021/04/05 01:58:54;;;;;;;36.17;17.67;;;;;;;1.59;62.36;99556.45;2134370;83;28944;-63
2021/04/05 02:01:56;;;;;;;32.67;17.60;;;;;;;1.55;62.38;99549.07;2134360;83;31222;-64
2021/04/05 02:04:59;;;;;;;30.75;16.02;;;;;;;1.55;62.47;99537.66;2134316;83;33171;-64
2021/04/05 02:08:02;;;;;;;30.82;16.10;;;;;;;1.53;62.54;99532.40;2134232;83;29170;-63
2021/04/05 02:11:17;;;;;;;37.80;17.92;;;;;;;1.53;62.55;99541.64;2112179;83;27679;-64
2021/04/05 02:14:20;;;;;;;32.73;17.12;;;;;;;1.51;62.62;99540.37;2111510;84;32853;-63
2021/04/05 02:17:22;;;;;;;28.27;16.70;;;;;;;1.49;62.64;99534.26;2111425;84;31164;-64
2021/04/05 02:20:25;;;;;;;32.05;17.73;;;;;;;1.47;62.68;99515.41;2111400;84;33977;-64
2021/04/05 02:23:27;;;;;;;30.97;17.30;;;;;;;1.44;62.73;99505.78;2111293;84;29176;-64
2021/04/05 02:26:32;;;;;;;34.05;18.05;;;;;;;1.43;62.71;99505.36;2111487;84;27775;-64
2021/04/05 02:29:34;;;;;;;35.38;16.32;;;;;;;1.43;62.80;99493.48;2111404;84;28834;-64
2021/04/05 02:32:39;;;;;;;31.65;17.07;;;;;;;1.41;62.63;99480.78;2111390;83;32208;-63
2021/04/05 02:35:42;;;;;;;35.40;16.85;;;;;;;1.38;62.67;99477.36;2111290;84;33544;-63
2021/04/05 02:38:47;;;;;;;30.12;16.40;;;;;;;1.37;62.72;99471.23;2111402;84;29183;-63
2021/04/05 02:41:50;;;;;;;30.62;16.97;;;;;;;1.36;62.83;99469.03;2111496;84;27705;-64
2021/04/05 02:44:52;;;;;;;30.45;16.62;;;;;;;1.34;62.79;99458.96;2091227;84;28446;-64
2021/04/05 02:47:57;;;;;;;27.85;16.30;;;;;;;1.31;62.78;99451.59;2111275;84;31147;-64
2021/04/05 02:51:04;;;;;;;29.23;16.30;;;;;;;1.30;62.75;99448.53;2111171;84;34290;-63
2021/04/05 02:54:07;;;;;;;32.85;17.52;;;;;;;1.28;62.80;99435.83;2111160;84;29185;-63
2021/04/05 02:57:09;;;;;;;30.43;16.42;;;;;;;1.26;62.74;99431.92;2111433;84;28214;-63
2021/04/05 03:00:15;;;;;;;27.90;16.30;;;;;;;1.24;62.80;99424.49;2111257;84;31175;-63
2021/04/05 03:03:19;;;;;;;29.92;16.60;;;;;;;1.24;62.71;99421.86;2111387;84;31232;-64
2021/04/05 03:06:22;;;;;;;30.35;16.07;;;;;;;1.19;62.75;99411.42;2091266;84;33110;-64
2021/04/05 03:09:24;;;;;;;24.75;15.08;;;;;;;1.18;62.73;99403.53;2111134;84;29182;-63
2021/04/05 03:12:28;;;;;;;29.50;15.18;;;;;;;1.15;62.84;99391.30;2111384;84;27716;-64
2021/04/05 03:15:30;;;;;;;25.30;14.47;;;;;;;1.14;62.82;99377.70;2111284;84;28840;-64
2021/04/05 03:18:34;;;;;;;22.93;14.78;;;;;;;1.11;62.78;99373.81;2111364;84;31160;-63
2021/04/05 03:21:37;;;;;;;26.12;15.40;;;;;;;1.09;62.86;99364.22;2111233;84;34063;-64
2021/04/05 03:24:39;;;;;;;25.27;15.75;;;;;;;1.05;63.00;99353.73;2111203;84;29240;-63
2021/04/05 03:27:42;;;;;;;24.32;14.43;;;;;;;1.04;63.00;99354.64;2111328;84;27600;-64
2021/04/05 03:30:49;;;;;;;26.52;15.08;;;;;;;1.03;63.00;99341.52;2111359;84;29818;-63
2021/04/05 03:34:22;;;;;;;22.42;13.98;;;;;;;1.04;63.08;99334.02;2110373;84;31241;-63
2021/04/05 03:37:26;;;;;;;22.35;13.65;;;;;;;1.04;63.10;99323.46;2111224;84;34259;-61
2021/04/05 03:40:30;;;;;;;20.82;12.73;;;;;;;1.05;63.17;99320.77;2111382;84;29392;-64
2021/04/05 03:43:43;;;;;;;27.25;12.90;;;;;;;1.06;63.15;99303.19;2091318;84;27619;-66
2021/04/05 03:46:46;;;;;;;21.90;13.00;;;;;;;1.08;63.11;99301.82;2111261;84;28775;-66
2021/04/05 03:50:18;;;;;;;22.17;11.75;;;;;;;1.08;63.24;99297.39;2111092;84;31176;-62
2021/04/05 03:53:35;;;;;;;20.35;12.03;;;;;;;1.09;63.19;99283.77;2111145;84;33109;-65
2021/04/05 03:56:43;;;;;;;17.10;11.33;;;;;;;1.11;63.21;99274.90;2111123;84;29215;-62
2021/04/05 03:59:49;;;;;;;19.57;12.43;;;;;;;1.13;63.24;99268.28;2111346;83;28220;-64
2021/04/05 04:02:53;;;;;;;14.30;10.50;;;;;;;1.16;63.17;99269.05;2091408;84;28837;-64
2021/04/05 04:05:58;;;;;;;17.75;10.75;;;;;;;1.17;63.17;99258.91;2111296;84;31164;-64
2021/04/05 04:09:03;;;;;;;18.90;11.63;;;;;;;1.18;63.15;99242.62;2111203;84;33140;-64
2021/04/05 04:12:10;;;;;;;18.27;11.03;;;;;;;1.20;63.13;99238.17;2111472;84;29215;-64
2021/04/05 04:15:14;;;;;;;17.57;10.82;;;;;;;1.24;63.16;99236.33;2111306;84;27631;-64
2021/04/05 04:18:19;;;;;;;11.80;7.23;;;;;;;1.28;63.09;99232.23;2111487;84;28797;-64
2021/04/05 04:21:22;;;;;;;15.88;9.93;;;;;;;1.32;63.08;99218.48;2111214;84;33492;-63
2021/04/05 04:24:27;;;;;;;18.87;10.78;;;;;;;1.38;63.11;99214.36;2111141;84;33134;-63
2021/04/05 04:27:29;;;;;;;24.57;10.43;;;;;;;1.46;63.09;99198.30;2111426;84;29164;-64
2021/04/05 04:30:32;;;;;;;17.15;9.53;;;;;;;1.55;63.08;99189.23;2111348;84;27937;-62
2021/04/05 04:33:34;;;;;;;19.50;10.38;;;;;;;1.62;63.00;99186.36;2111257;84;28265;-63
2021/04/05 04:36:37;;;;;;;15.78;9.90;;;;;;;1.74;62.96;99176.31;2111224;84;32399;-63
2021/04/05 04:39:40;;;;;;;16.42;9.08;;;;;;;1.86;62.92;99167.14;2111196;84;33117;-63
2021/04/05 04:42:42;;;;;;;15.45;9.03;;;;;;;1.96;62.81;99149.63;2111096;84;29240;-63
2021/04/05 04:45:45;;;;;;;16.85;9.10;;;;;;;2.09;62.67;99138.66;2111174;84;27730;-63
2021/04/05 04:48:47;;;;;;;18.70;8.78;;;;;;;2.21;62.62;99136.91;2111123;84;29007;-64
2021/04/05 04:51:50;;;;;;;14.07;7.95;;;;;;;2.35;62.48;99136.88;2091091;84;31160;-62
2021/04/05 04:54:53;;;;;;;16.23;8.65;;;;;;;2.50;62.41;99129.73;2111108;84;33178;-62
2021/04/05 04:58:01;;;;;;;15.28;7.70;;;;;;;2.64;62.32;99119.14;2111135;84;28954;-63
2021/04/05 05:01:03;;;;;;;13.28;7.78;;;;;;;2.77;62.17;99114.25;2111257;84;27605;-63
2021/04/05 05:04:19;;;;;;;12.18;7.80;;;;;;;2.89;62.11;99106.73;2091167;84;29281;-64
2021/04/05 05:07:22;;;;;;;14.10;7.60;;;;;;;3.04;61.88;99090.75;2111101;84;31155;-63
2021/04/05 05:10:25;;;;;;;11.28;6.78;;;;;;;3.21;61.88;99097.17;2093973;84;34053;-64
2021/04/05 05:13:28;;;;;;;10.50;6.67;;;;;;;3.36;61.75;99087.75;2118194;84;29342;-63
2021/04/05 05:16:32;;;;;;;13.15;6.45;;;;;;;3.53;61.66;99085.77;2099857;84;27690;-63
2021/04/05 05:19:37;;;;;;;15.05;6.47;;;;;;;3.69;61.55;99078.04;2118071;84;28832;-62
2021/04/05 05:22:51;;;;;;;11.45;6.67;;;;;;;3.85;61.24;99070.34;2118255;84;31667;-62
2021/04/05 05:25:53;;;;;;;11.95;6.87;;;;;;;4.02;61.04;99076.23;2118135;84;33098;-62
2021/04/05 05:28:57;;;;;;;11.10;6.17;;;;;;;4.22;60.94;99066.56;2099694;84;29142;-63
2021/04/05 05:31:59;;;;;;;9.67;5.00;;;;;;;4.39;60.49;99061.83;2118366;84;27721;-62
2021/04/05 05:35:04;;;;;;;11.75;6.28;;;;;;;4.55;60.58;99062.02;2118039;84;28813;-63
2021/04/05 05:38:06;;;;;;;11.90;6.80;;;;;;;4.72;60.18;99050.63;2118257;83;31146;-62
2021/04/05 05:41:23;;;;;;;13.68;6.62;;;;;;;4.89;59.90;99039.26;2117999;83;33060;-63
2021/04/05 05:44:49;;;;;;;13.65;6.62;;;;;;;5.05;59.67;99042.03;2117540;83;29246;-62
2021/04/05 05:48:08;;;;;;;9.48;5.92;;;;;;;5.24;59.28;99030.54;2118230;83;27584;-63
2021/04/05 05:51:47;;;;;;;16.65;7.40;;;;;;;5.44;59.12;99037.08;2118033;84;31203;-63
2021/04/05 05:55:22;;;;;;;12.28;6.53;;;;;;;5.66;58.81;99025.84;2074791;85;31142;-62
2021/04/05 05:58:51;;;;;;;14.73;7.03;;;;;;;6.04;58.79;99018.61;2343220;76;30013;-63
2021/04/05 06:02:08;;;;;;;15.60;7.78;;;;;;;6.24;58.79;99011.40;2303765;77;27707;-63
2021/04/05 06:05:43;;;;;;;14.45;8.15;;;;;;;6.58;58.18;99007.42;2302922;77;28826;-62
2021/04/05 06:09:26;;;;;;;17.23;9.30;;;;;;;6.91;58.06;99020.67;2303570;77;31148;-62
2021/04/05 06:12:52;;;;;;;19.20;8.68;;;;;;;7.27;57.79;99010.23;2303373;77;35414;-63
2021/04/05 06:16:18;;;;;;;17.07;9.70;;;;;;;7.67;57.56;99008.41;2302842;77;28559;-64
2021/04/05 06:19:46;;;;;;;18.00;10.05;;;;;;;8.12;56.81;99002.22;2303192;77;27663;-64
2021/04/05 06:23:27;;;;;;;23.32;9.58;;;;;;;8.60;56.55;98990.00;2303733;77;28827;-64
2021/04/05 06:26:55;;;;;;;19.10;9.75;;;;;;;9.11;56.08;98984.08;2303587;77;31194;-63
2021/04/05 06:30:25;;;;;;;17.37;8.28;;;;;;;9.65;55.34;98985.03;2302471;77;35467;-63
2021/04/05 06:33:37;;;;;;;13.53;7.65;;;;;;;9.99;54.57;98961.34;2293502;77;29291;-63
2021/04/05 06:36:49;;;;;;;16.85;8.05;;;;;;;10.21;54.23;98945.14;2303597;77;27624;-64
2021/04/05 06:40:06;;;;;;;16.07;7.33;;;;;;;10.36;53.49;98938.70;2303578;77;29434;-64
2021/04/05 06:43:58;;;;;;;14.33;7.53;;;;;;;10.46;53.64;98934.92;2302899;77;31188;-65
2021/04/05 06:47:41;;;;;;;14.75;7.65;;;;;;;10.69;53.23;98939.97;2303466;77;33152;-64
2021/04/05 06:51:01;;;;;;;19.77;8.53;;;;;;;11.19;52.65;98928.33;2303537;77;28850;-64
2021/04/05 06:54:54;;;;;;;15.23;7.58;;;;;;;11.69;52.53;98923.66;2303616;77;27690;-64
2021/04/05 06:58:24;;;;;;;13.28;7.25;;;;;;;12.08;51.54;98910.47;2217039;80;29756;-64
2021/04/05 07:02:14;;;;;;;28.35;14.70;;;;;;;12.51;50.66;98900.81;2223943;80;31089;-64
2021/04/05 07:05:56;;;;;;;25.15;11.43;;;;;;;12.93;50.62;98896.97;2223973;80;33101;-64
2021/04/05 07:09:26;;;;;;;31.60;15.83;;;;;;;13.62;50.06;98894.41;2284424;77;36751;-64
2021/04/05 07:12:37;;;;;;;22.13;10.85;;;;;;;14.18;49.56;98891.47;2266660;78;27709;-64
2021/04/05 07:15:49;;;;;;;20.05;10.20;;;;;;;14.58;48.92;98890.63;2266777;78;28787;-64
2021/04/05 07:19:45;;;;;;;23.38;13.85;;;;;;;14.63;47.51;98869.52;2266663;78;31693;-64
2021/04/05 07:23:20;;;;;;;15.28;7.37;;;;;;;14.60;47.08;98859.00;2266693;78;33078;-65
2021/04/05 07:26:39;;;;;;;10.63;5.80;;;;;;;14.76;46.54;98858.52;2266672;78;36811;-64
2021/04/05 07:30:27;;;;;;;15.63;7.10;;;;;;;14.83;45.38;98854.26;2266657;78;27747;-64
2021/04/05 07:33:38;;;;;;;11.28;6.17;;;;;;;14.91;46.26;98848.16;2236706;78;28878;-66
2021/04/05 07:36:50;;;;;;;19.00;6.33;;;;;;;15.07;44.52;98831.45;2266566;78;31185;-65
2021/04/05 07:40:07;;;;;;;14.47;7.67;;;;;;;15.00;44.78;98833.86;2266606;78;33154;-64
2021/04/05 07:43:33;;;;;;;15.95;6.42;;;;;;;14.98;44.19;98834.97;2266583;78;29787;-64
2021/04/05 07:46:49;;;;;;;12.05;7.03;;;;;;;15.08;44.59;98823.70;2266655;78;27631;-65
2021/04/05 07:50:05;;;;;;;20.50;6.95;;;;;;;15.14;43.85;98809.63;2266696;78;28821;-65
2021/04/05 07:53:28;;;;;;;10.90;5.75;;;;;;;15.08;43.62;98806.66;2266565;78;31181;-65
2021/04/05 07:56:58;;;;;;;15.70;6.20;;;;;;;15.02;42.90;98799.98;2266323;78;34050;-65
2021/04/05 08:00:15;;;;;;;12.30;6.70;;;;;;;14.93;43.32;98796.30;2266605;78;28865;-65
2021/04/05 08:03:38;;;;;;;13.18;5.97;;;;;;;14.91;43.04;98782.10;2204088;80;28352;-65
2021/04/05 08:07:06;;;;;;;11.48;6.30;;;;;;;15.02;43.09;98773.89;2202975;80;28036;-65
2021/04/05 08:10:31;;;;;;;15.20;6.92;;;;;;;15.25;42.55;98767.33;2204234;80;31200;-66
2021/04/05 08:14:12;;;;;;;12.28;6.40;;;;;;;15.40;42.40;98766.37;2204440;80;33175;-66
2021/04/05 08:17:31;;;;;;;10.88;5.70;;;;;;;15.62;42.01;98770.08;2204433;80;28865;-66
2021/04/05 08:20:55;;;;;;;15.13;8.65;;;;;;;15.86;41.30;98763.38;2203635;80;27707;-67
2021/04/05 08:24:42;;;;;;;13.70;6.80;;;;;;;16.17;41.48;98752.75;2203356;80;29019;-66
2021/04/05 08:28:10;;;;;;;14.80;6.65;;;;;;;16.80;40.65;98742.45;2108876;84;31255;-66
2021/04/05 08:31:49;;;;;;;14.70;6.47;;;;;;;16.80;40.65;98742.45;2145119;82;33978;-65
2021/04/05 08:35:17;;;;;;;12.13;6.58;;;;;;;16.95;39.89;98741.44;2108987;84;28857;-66
2021/04/05 08:38:47;;;;;;;12.98;6.95;;;;;;;16.99;39.50;98737.91;2343120;76;32346;-66
2021/04/05 08:42:25;;;;;;;15.75;7.22;;;;;;;16.95;39.52;98731.11;2303677;77;27617;-65
2021/04/05 08:45:41;;;;;;;16.95;6.50;;;;;;;16.88;39.51;98729.50;2303737;77;29212;-65
2021/04/05 08:48:58;;;;;;;18.07;8.30;;;;;;;16.82;38.70;98716.59;2342922;76;32378;-65
2021/04/05 08:52:05;;;;;;;13.40;6.92;;;;;;;16.77;39.07;98706.77;2303833;77;27632;-65
2021/04/05 08:55:09;;;;;;;15.88;8.25;;;;;;;16.77;39.07;98706.77;2272871;77;30130;-66
2021/04/05 08:58:37;;;;;;;15.85;7.75;;;;;;;16.79;39.08;98704.23;2303675;77;31115;-66
2021/04/05 09:01:44;;;;;;;21.25;7.25;;;;;;;16.88;38.92;98704.33;2303717;77;33136;-65
2021/04/05 09:04:49;;;;;;;12.65;7.62;;;;;;;16.78;38.55;98701.70;2303520;77;28583;-65
2021/04/05 09:08:06;;;;;;;;;;;;;;;16.71;38.32;98696.06;2306058;77;27646;-65
2021/04/05 09:11:10;;;;;;;19.20;8.95;;;;;;;16.45;38.79;98666.26;2303633;77;28812;-65
2021/04/05 09:14:15;;;;;;;15.63;8.43;;;;;;;16.45;38.79;98666.26;2303911;77;31115;-64
2021/04/05 09:18:08;;;;;;;17.02;9.00;;;;;;;16.48;38.09;98681.66;2303703;77;34181;-65
2021/04/05 09:21:51;;;;;;;20.17;8.90;;;;;;;16.26;38.11;98670.80;2163288;81;28944;-65
2021/04/05 09:25:04;;;;;;;22.95;10.05;;;;;;;16.16;38.07;98679.45;2163293;82;27887;-65
2021/04/05 09:28:33;;;;;;;15.28;8.18;;;;;;;16.00;38.37;98680.14;2163178;82;28876;-66
2021/04/05 09:32:01;;;;;;;25.82;12.03;;;;;;;15.80;37.75;98660.80;2252287;77;32282;-65
2021/04/05 09:35:25;;;;;;;20.60;11.05;;;;;;;15.63;38.45;98660.27;2123875;83;27595;-64
2021/04/05 09:38:56;;;;;;;16.97;8.80;;;;;;;15.59;38.61;98654.81;2123791;83;28810;-66
2021/04/05 09:42:55;;;;;;;17.20;8.25;;;;;;;15.52;38.48;98644.25;2123650;83;31585;-65
2021/04/05 09:46:28;;;;;;;17.70;9.78;;;;;;;15.49;38.40;98646.77;2123793;83;33305;-65
2021/04/05 09:50:09;;;;;;;21.70;8.98;;;;;;;15.54;38.99;98640.91;2297391;77;32739;-65
2021/04/05 09:53:44;;;;;;;15.18;8.35;;;;;;;15.50;39.18;98633.62;2262702;78;27660;-66
2021/04/05 09:56:59;;;;;;;20.15;9.55;;;;;;;15.52;39.14;98618.12;1997248;85;27640;-65
2021/04/05 10:00:14;;;;;;;23.27;10.78;;;;;;;15.57;38.83;98607.71;2252059;77;32308;-65
2021/04/05 10:03:18;;;;;;;23.65;11.12;;;;;;;15.51;39.00;98615.08;2213062;80;27741;-66
2021/04/05 10:06:21;;;;;;;18.40;10.03;;;;;;;15.53;39.14;98604.12;2217617;80;29709;-65
2021/04/05 10:09:31;;;;;;;22.80;11.12;;;;;;;15.48;38.45;98608.11;2212674;80;32107;-65
2021/04/05 10:12:34;;;;;;;20.72;11.05;;;;;;;15.41;38.96;98608.38;2217662;80;34353;-65
2021/04/05 10:15:37;;;;;;;23.80;12.43;;;;;;;15.42;39.17;98610.56;2217581;80;28770;-65
2021/04/05 10:18:54;;;;;;;19.75;9.05;;;;;;;15.43;39.14;98600.13;2217655;80;27721;-64
2021/04/05 10:22:07;;;;;;;20.82;13.35;;;;;;;15.41;38.55;98597.58;2217595;80;28829;-65
2021/04/05 10:25:13;;;;;;;20.35;10.28;;;;;;;15.34;38.86;98604.08;2217659;80;31111;-65
2021/04/05 10:28:16;;;;;;;20.00;9.93;;;;;;;15.33;39.07;98596.98;2217498;80;33130;-65
2021/04/05 10:31:22;;;;;;;25.68;11.05;;;;;;;15.43;39.38;98591.54;2217517;80;29011;-65
2021/04/05 10:34:27;;;;;;;23.95;12.00;;;;;;;15.48;38.63;98587.87;2217616;80;27717;-65
2021/04/05 10:37:35;;;;;;;31.12;20.65;;;;;;;15.53;38.59;98584.74;2217722;80;29757;-65
2021/04/05 10:40:39;;;;;;;67.32;30.95;;;;;;;15.67;39.01;98587.41;2217594;80;31211;-65
2021/04/05 10:43:51;;;;;;;33.30;16.60;;;;;;;15.87;38.93;98574.69;2217736;80;33124;-65
2021/04/05 10:47:00;;;;;;;16.82;9.93;;;;;;;16.16;37.96;98556.53;2217616;80;28865;-66
2021/04/05 10:50:07;;;;;;;21.62;10.63;;;;;;;16.16;37.96;98556.53;2217670;80;27728;-64
2021/04/05 10:53:14;;;;;;;19.52;8.95;;;;;;;16.16;38.21;98562.80;2217447;80;28804;-65
2021/04/05 10:56:17;;;;;;;22.32;10.03;;;;;;;16.12;37.94;98521.41;2217336;80;32120;-66
2021/04/05 10:59:39;;;;;;;19.90;10.00;;;;;;;16.12;37.94;98521.41;2221800;80;33132;-66
2021/04/05 11:03:08;;;;;;;21.02;8.88;;;;;;;16.35;37.70;98525.80;2343145;76;32777;-65
2021/04/05 11:06:15;;;;;;;31.97;14.10;;;;;;;16.42;37.28;98511.16;2303674;77;27580;-65
2021/04/05 11:09:18;;;;;;;27.55;12.10;;;;;;;16.42;37.28;98511.16;2303670;77;28811;-65
2021/04/05 11:12:21;;;;;;;16.65;8.35;;;;;;;16.32;37.88;98482.88;2303616;77;31120;-65
2021/04/05 11:15:27;;;;;;;26.25;12.68;;;;;;;16.43;37.67;98496.12;2303638;77;33079;-65
2021/04/05 11:18:31;;;;;;;19.30;8.60;;;;;;;16.43;37.38;98488.53;2303710;77;28524;-65
2021/04/05 11:21:53;;;;;;;19.27;10.15;;;;;;;16.32;37.97;98453.98;2303878;77;27672;-65
2021/04/05 11:25:05;;;;;;;21.07;10.80;;;;;;;16.48;37.51;98473.52;2303594;77;28794;-65
2021/04/05 11:28:27;;;;;;;22.30;11.35;;;;;;;16.39;37.40;98467.70;2303698;77;31129;-65
2021/04/05 11:31:45;;;;;;;21.75;11.70;;;;;;;16.30;37.39;98468.67;2303641;77;34324;-65
2021/04/05 11:34:56;;;;;;;19.35;10.78;;;;;;;16.22;37.53;98449.20;2302962;77;28836;-65
2021/04/05 11:38:15;;;;;;;18.48;10.58;;;;;;;16.29;37.15;98455.68;2303653;77;27724;-64
2021/04/05 11:41:21;;;;;;;15.32;9.58;;;;;;;16.24;37.47;98445.32;2303412;77;28821;-65
2021/04/05 11:44:39;;;;;;;18.62;10.08;;;;;;;16.20;36.63;98449.38;2272830;77;32022;-65
2021/04/05 11:47:48;;;;;;;17.87;9.40;;;;;;;16.17;37.07;98442.92;2303631;77;33126;-66
2021/04/05 11:50:51;;;;;;;15.23;8.98;;;;;;;16.20;37.00;98443.10;2303547;77;28853;-65
2021/04/05 11:54:01;;;;;;;9.90;6.37;;;;;;;16.20;36.31;98425.54;2303614;77;28143;-66
2021/04/05 11:57:07;;;;;;;22.73;11.88;;;;;;;16.15;36.05;98431.42;2303698;77;28806;-65
2021/04/05 12:00:15;;;;;;;16.00;8.05;;;;;;;16.04;36.79;98409.57;2303273;77;31204;-66
2021/04/05 12:03:35;;;;;;;16.20;9.60;;;;;;;16.04;36.79;98409.57;2303297;77;34050;-66
2021/04/05 12:06:46;;;;;;;24.70;12.28;;;;;;;16.26;36.47;98415.46;2303502;77;29817;-65
2021/04/05 12:10:04;;;;;;;18.98;7.83;;;;;;;16.32;36.43;98418.86;2302167;77;27634;-65
2021/04/05 12:13:33;;;;;;;15.08;7.15;;;;;;;16.00;36.01;98391.14;2303031;77;28804;-65
2021/04/05 12:16:38;;;;;;;17.35;7.65;;;;;;;16.00;36.01;98391.14;2302584;77;31696;-65
2021/04/05 12:19:43;;;;;;;16.32;7.25;;;;;;;16.04;35.95;98406.03;2302791;77;34473;-65
2021/04/05 12:22:45;;;;;;;12.03;5.40;;;;;;;15.94;35.98;98405.61;2272181;77;32562;-65
2021/04/05 12:25:51;;;;;;;9.60;4.37;;;;;;;15.88;35.62;98400.86;2302770;77;27698;-65
2021/04/05 12:29:08;;;;;;;11.63;4.95;;;;;;;15.79;35.65;98384.20;2272250;77;29722;-64
2021/04/05 12:32:18;;;;;;;16.02;8.75;;;;;;;15.75;35.83;98363.44;2302297;77;32115;-65
2021/04/05 12:35:22;;;;;;;14.87;6.00;;;;;;;15.72;35.97;98350.25;2302841;77;33982;-65
2021/04/05 12:38:32;;;;;;;13.67;6.07;;;;;;;15.75;36.18;98348.58;2303008;77;28850;-64
2021/04/05 12:41:41;;;;;;;11.10;5.70;;;;;;;15.77;35.91;98340.31;2302798;77;27580;-65
2021/04/05 12:44:46;;;;;;;12.80;5.92;;;;;;;15.73;35.61;98334.88;2302750;77;28806;-66
2021/04/05 12:47:51;;;;;;;9.25;5.12;;;;;;;15.68;35.88;98329.13;2302954;77;32079;-64
2021/04/05 12:50:59;;;;;;;;;;;;;;;15.55;35.86;98328.18;2305439;77;33984;-66
2021/04/05 12:54:06;;;;;;;9.93;5.03;;;;;;;15.41;36.03;98325.05;2302786;77;29940;-66
2021/04/05 12:57:09;;;;;;;9.35;4.80;;;;;;;15.25;35.82;98331.66;2302853;77;27667;-65
2021/04/05 13:00:21;;;;;;;12.45;4.75;;;;;;;15.10;35.87;98337.59;2302652;77;28793;-65
2021/04/05 13:03:43;;;;;;;12.10;5.45;;;;;;;14.92;35.99;98341.61;2302735;77;32276;-66
2021/04/05 13:06:51;;;;;;;16.23;7.87;;;;;;;14.76;36.37;98350.88;2302694;77;33924;-66
2021/04/05 13:10:00;;;;;;;13.72;5.40;;;;;;;14.64;36.96;98340.28;2302659;77;30127;-65
2021/04/05 13:13:11;;;;;;;11.10;4.37;;;;;;;14.51;36.72;98337.93;2302813;77;28285;-65
2021/04/05 13:16:25;;;;;;;14.25;7.58;;;;;;;14.32;36.44;98356.39;2302696;77;31101;-65
2021/04/05 13:19:41;;;;;;;9.63;4.70;;;;;;;14.11;36.68;98357.46;2302547;77;32507;-66
2021/04/05 13:22:54;;;;;;;18.12;5.92;;;;;;;13.95;36.62;98361.27;2302603;77;33113;-69
2021/04/05 13:26:08;;;;;;;10.30;4.78;;;;;;;13.75;37.29;98359.12;2302560;77;28919;-66
2021/04/05 13:29:14;;;;;;;11.65;4.78;;;;;;;13.63;37.82;98359.77;2302756;77;27602;-64
2021/04/05 13:32:19;;;;;;;13.03;5.00;;;;;;;13.47;37.66;98358.52;2302561;77;29209;-66
2021/04/05 13:35:23;;;;;;;8.13;4.65;;;;;;;13.32;37.79;98363.95;2271417;77;32059;-66
2021/04/05 13:38:26;;;;;;;13.98;6.12;;;;;;;13.18;38.34;98376.83;2302720;77;33123;-65
2021/04/05 13:41:35;;;;;;;16.25;8.10;;;;;;;13.06;38.94;98387.38;2302734;77;29080;-66
2021/04/05 13:44:39;;;;;;;17.60;9.55;;;;;;;12.92;41.03;98411.45;2302691;77;27623;-66
2021/04/05 13:47:49;;;;;;;18.48;9.60;;;;;;;12.66;44.06;98428.05;2302984;77;28803;-64
2021/04/05 13:50:59;;;;;;;18.00;10.05;;;;;;;12.34;45.73;98458.59;2302681;77;32351;-64
2021/04/05 13:54:03;;;;;;;17.50;10.38;;;;;;;12.04;47.05;98466.97;2302624;77;32973;-65
2021/04/05 13:57:10;;;;;;;19.00;10.60;;;;;;;11.73;47.54;98482.12;2302680;77;28899;-66
2021/04/05 14:00:18;;;;;;;17.40;11.15;;;;;;;11.49;48.78;98495.23;2302781;77;27614;-66
2021/04/05 14:03:26;;;;;;;19.75;11.28;;;;;;;11.25;49.80;98497.64;2305611;77;28819;-65
2021/04/05 14:06:35;;;;;;;20.25;11.45;;;;;;;11.04;49.75;98498.87;2305212;77;32515;-66
2021/04/05 14:09:38;;;;;;;13.58;9.98;;;;;;;10.82;50.37;98508.65;2306759;77;33115;-65
2021/04/05 14:12:47;;;;;;;18.40;9.05;;;;;;;10.63;50.73;98509.23;2306747;77;28850;-66
2021/04/05 14:15:49;;;;;;;15.53;8.30;;;;;;;10.46;51.78;98504.72;2306818;77;28199;-65
2021/04/05 14:19:13;;;;;;;17.17;10.32;;;;;;;10.25;51.42;98510.40;2306784;77;30032;-65
2021/04/05 14:22:35;;;;;;;12.70;7.28;;;;;;;10.13;52.54;98517.04;2306694;77;31121;-65
2021/04/05 14:26:06;;;;;;;10.10;6.72;;;;;;;9.90;52.36;98510.77;2306803;77;32259;-66
2021/04/05 14:29:13;;;;;;;8.73;5.30;;;;;;;9.66;53.41;98508.13;2306590;77;29047;-65
2021/04/05 14:32:20;;;;;;;10.23;5.30;;;;;;;9.46;53.97;98509.63;2306842;77;27576;-65
2021/04/05 14:35:43;;;;;;;10.98;5.08;;;;;;;9.24;54.54;98513.40;2306821;77;29836;-65
2021/04/05 14:38:51;;;;;;;6.83;5.30;;;;;;;9.08;55.32;98515.48;2306704;77;31230;-66
2021/04/05 14:41:57;;;;;;;7.47;5.67;;;;;;;8.88;56.26;98511.55;2306658;77;33179;-65
2021/04/05 14:45:10;;;;;;;45.60;23.02;;;;;;;8.69;57.08;98520.87;2298743;77;28866;-64
2021/04/05 14:48:14;;;;;;;44.08;26.97;;;;;;;8.50;56.84;98520.86;2306797;77;27970;-64
2021/04/05 14:51:29;;;;;;;49.00;26.77;;;;;;;8.38;57.31;98533.66;2306696;77;28911;-64
2021/04/05 14:54:32;;;;;;;29.40;13.67;;;;;;;8.27;57.77;98532.22;2306977;77;31121;-65
2021/04/05 14:57:47;;;;;;;22.27;13.93;;;;;;;8.16;59.06;98539.16;2306667;77;33094;-63